createdAt,value
2017-11-11T00:01:42.544Z,3.07
2017-11-11T00:07:46.810Z,3.70
2017-11-11T00:13:50.289Z,2.70
2017-11-11T00:19:53.775Z,3.20
2017-11-11T00:25:57.276Z,1.87
2017-11-11T00:32:01.453Z,3.40
2017-11-11T00:38:04.934Z,2.73
2017-11-11T00:44:08.724Z,3.47
2017-11-11T00:50:12.190Z,3.03
2017-11-11T00:56:15.694Z,4.07
2017-11-11T01:02:19.179Z,3.70
2017-11-11T01:08:22.673Z,4.03
2017-11-11T01:14:27.285Z,4.60
2017-11-11T01:20:31.552Z,4.33
2017-11-11T01:26:35.045Z,5.10
2017-11-11T01:32:38.542Z,3.83
2017-11-11T01:38:42.045Z,2.53
2017-11-11T01:44:46.296Z,4.40
2017-11-11T01:50:49.804Z,3.60
2017-11-11T01:56:53.305Z,3.70
2017-11-11T02:02:57.374Z,4.50
2017-11-11T02:09:01.147Z,5.10
2017-11-11T02:15:04.867Z,4.33
2017-11-11T02:21:08.471Z,6.30
2017-11-11T02:27:12.910Z,7.83
2017-11-11T02:33:16.477Z,7.30
2017-11-11T02:39:20.031Z,6.73
2017-11-11T02:45:24.366Z,7.07
2017-11-11T02:51:28.082Z,7.20
2017-11-11T02:57:32.792Z,6.00
2017-11-11T03:03:37.400Z,8.13
2017-11-11T03:09:41.615Z,7.33
2017-11-11T03:15:46.170Z,8.83
2017-11-11T03:21:50.134Z,8.70
2017-11-11T03:27:54.486Z,8.40
2017-11-11T03:33:58.114Z,7.30
2017-11-11T03:40:03.454Z,7.97
2017-11-11T03:46:07.070Z,6.60
2017-11-11T03:52:11.499Z,5.77
2017-11-11T03:58:15.928Z,6.47
2017-11-11T04:04:19.952Z,7.20
2017-11-11T04:10:24.475Z,6.40
2017-11-11T04:16:28.127Z,5.00
2017-11-11T04:22:32.160Z,6.70
2017-11-11T04:28:36.220Z,5.03
2017-11-11T04:34:39.796Z,7.63
2017-11-11T04:40:44.346Z,8.37
2017-11-11T04:46:48.042Z,8.10
2017-11-11T04:52:52.451Z,8.70
2017-11-11T04:58:57.740Z,9.83
2017-11-11T05:05:01.791Z,7.50
2017-11-11T05:11:05.795Z,7.93
2017-11-11T05:17:10.524Z,7.00
2017-11-11T05:23:15.992Z,7.80
2017-11-11T05:29:19.942Z,8.43
2017-11-11T05:35:26.869Z,10.70
2017-11-11T05:41:31.867Z,10.00
2017-11-11T05:47:35.472Z,8.63
2017-11-11T05:53:39.834Z,8.13
2017-11-11T05:59:43.811Z,8.30
2017-11-11T06:05:47.426Z,6.80
2017-11-11T06:11:51.294Z,8.27
2017-11-11T06:17:56.539Z,7.20
2017-11-11T06:24:00.529Z,6.63
2017-11-11T06:30:04.099Z,8.20
2017-11-11T06:36:08.488Z,6.60
2017-11-11T06:42:12.072Z,5.57
2017-11-11T06:48:15.899Z,5.77
2017-11-11T06:54:20.535Z,7.00
2017-11-11T07:00:25.817Z,8.20
2017-11-11T07:06:29.889Z,7.03
2017-11-11T07:12:35.177Z,7.00
2017-11-11T07:18:39.166Z,6.63
2017-11-11T07:24:44.235Z,9.70
2017-11-11T07:30:48.145Z,7.00
2017-11-11T07:36:51.938Z,5.77
2017-11-11T07:42:55.901Z,6.20
2017-11-11T07:49:01.235Z,6.40
2017-11-11T07:55:07.356Z,5.43
2017-11-11T08:01:11.472Z,5.53
2017-11-11T08:07:17.356Z,5.50
2017-11-11T08:29:41.261Z,4.00
2017-11-11T08:35:44.768Z,3.57
2017-11-11T08:41:48.286Z,4.10
2017-11-11T08:47:51.891Z,4.27
2017-11-11T08:53:55.434Z,4.50
2017-11-11T08:59:58.987Z,6.07
2017-11-11T09:06:02.827Z,6.00
2017-11-11T09:12:06.352Z,6.83
2017-11-11T09:18:09.851Z,7.00
2017-11-11T09:24:13.370Z,7.10
2017-11-11T09:30:16.859Z,6.33
2017-11-11T09:36:20.374Z,5.50
2017-11-11T09:42:24.630Z,4.70
2017-11-11T09:48:28.163Z,2.67
2017-11-11T09:54:32.309Z,2.10
2017-11-11T10:00:35.814Z,4.00
2017-11-11T10:06:39.332Z,2.80
2017-11-11T10:12:43.054Z,4.30
2017-11-11T10:18:46.584Z,4.17
2017-11-11T10:24:50.911Z,14.83
2017-11-11T10:30:54.439Z,8.80
2017-11-11T10:36:57.942Z,8.07
2017-11-11T10:43:01.476Z,11.30
2017-11-11T10:49:05.752Z,6.40
2017-11-11T10:55:10.034Z,5.97
2017-11-11T11:01:13.548Z,8.60
2017-11-11T11:07:17.107Z,6.07
2017-11-11T11:13:20.603Z,5.73
2017-11-11T11:19:24.107Z,4.00
2017-11-11T11:25:27.611Z,5.50
2017-11-11T11:31:32.071Z,7.40
2017-11-11T11:37:35.590Z,7.40
2017-11-11T11:43:39.866Z,6.17
2017-11-11T11:49:43.378Z,6.83
2017-11-11T11:55:47.649Z,6.30
2017-11-11T12:01:51.156Z,7.97
2017-11-11T12:07:54.661Z,6.77
2017-11-11T12:13:58.965Z,7.43
2017-11-11T12:20:03.289Z,6.53
2017-11-11T12:26:06.812Z,6.93
2017-11-11T12:32:10.359Z,6.27
2017-11-11T12:38:13.879Z,6.60
2017-11-11T12:44:17.426Z,6.20
2017-11-11T12:50:20.944Z,4.30
2017-11-11T12:56:24.454Z,4.00
2017-11-11T13:02:27.977Z,4.17
2017-11-11T13:08:31.571Z,3.60
2017-11-11T13:14:35.135Z,4.50
2017-11-11T13:20:39.423Z,5.33
2017-11-11T13:26:42.922Z,3.47
2017-11-11T13:32:47.214Z,4.70
2017-11-11T13:38:51.494Z,6.73
2017-11-11T13:44:55.011Z,6.13
2017-11-11T13:50:59.449Z,6.20
2017-11-11T13:57:02.994Z,6.53
2017-11-11T14:03:07.282Z,8.00
2017-11-11T14:09:11.093Z,11.87
2017-11-11T14:15:15.427Z,5.93
2017-11-11T14:21:18.950Z,5.40
2017-11-11T14:27:23.625Z,4.80
2017-11-11T14:33:27.137Z,5.73
2017-11-11T14:39:30.996Z,6.50
2017-11-11T14:45:34.508Z,4.27
2017-11-11T14:51:38.350Z,6.73
2017-11-11T14:57:42.620Z,4.97
2017-11-11T15:03:46.155Z,5.50
2017-11-11T15:09:49.682Z,7.80
2017-11-11T15:15:53.523Z,6.80
2017-11-11T15:21:57.793Z,5.97
2017-11-11T15:28:01.272Z,5.67
2017-11-11T15:34:05.174Z,6.47
2017-11-11T15:40:08.660Z,6.60
2017-11-11T15:46:13.037Z,6.30
2017-11-11T15:52:17.349Z,5.67
2017-11-11T15:58:20.858Z,7.17
2017-11-11T16:04:24.285Z,7.33
2017-11-11T16:10:28.005Z,6.27
2017-11-11T16:16:31.548Z,6.20
2017-11-11T16:22:35.016Z,6.07
2017-11-11T16:28:38.469Z,6.13
2017-11-11T16:34:41.943Z,6.50
2017-11-11T16:40:45.443Z,5.80
2017-11-11T16:46:49.009Z,7.60
2017-11-11T16:52:52.462Z,7.87
2017-11-11T16:58:55.928Z,5.20
2017-11-11T17:05:00.324Z,6.97
2017-11-11T17:11:03.787Z,5.57
2017-11-11T17:17:07.647Z,4.70
2017-11-11T17:23:11.078Z,2.30
2017-11-11T17:29:16.691Z,3.60
2017-11-11T17:35:20.408Z,3.80
2017-11-11T17:41:25.014Z,6.27
2017-11-11T18:03:38.521Z,3.57
2017-11-11T18:09:42.817Z,3.93
2017-11-11T18:15:46.811Z,4.40
2017-11-11T18:21:50.880Z,5.20
2017-11-11T18:27:54.400Z,4.30
2017-11-11T18:34:04.135Z,4.60
2017-11-11T18:59:37.801Z,3.80
2017-11-11T19:05:41.403Z,7.00
2017-11-11T19:27:59.940Z,7.10
2017-11-11T19:34:03.466Z,6.73
2017-11-11T19:40:06.982Z,4.90
2017-11-11T19:46:10.512Z,8.53
2017-11-11T19:52:14.290Z,4.80
2017-11-11T19:58:18.645Z,3.93
2017-11-11T20:04:23.550Z,3.63
2017-11-11T20:10:28.059Z,4.10
2017-11-11T20:16:31.616Z,4.27
2017-11-11T20:22:36.402Z,4.83
2017-11-11T20:28:39.922Z,6.00
2017-11-11T20:34:45.652Z,7.77
2017-11-11T20:40:49.478Z,6.33
2017-11-11T20:59:53.084Z,6.57
2017-11-11T21:05:56.631Z,6.10
2017-11-11T21:12:00.911Z,6.73
2017-11-11T21:18:05.661Z,7.00
2017-11-11T21:24:09.125Z,5.90
2017-11-11T21:30:12.671Z,4.87
2017-11-11T21:36:16.212Z,6.10
2017-11-11T21:42:19.999Z,4.80
2017-11-11T21:48:24.499Z,5.63
2017-11-11T21:54:28.099Z,5.83
2017-11-11T22:00:31.962Z,6.60
2017-11-11T22:06:35.487Z,6.20
2017-11-11T22:12:39.801Z,7.40
2017-11-11T22:18:43.333Z,6.93
2017-11-11T22:24:46.966Z,6.00
2017-11-11T22:30:50.552Z,6.10
2017-11-11T22:36:54.110Z,6.70
2017-11-11T22:42:57.648Z,5.13
2017-11-11T22:49:01.156Z,5.50
2017-11-11T22:55:04.727Z,5.23
2017-11-11T23:01:08.454Z,6.17
2017-11-11T23:20:12.108Z,8.77
2017-11-11T23:26:16.644Z,6.40
2017-11-11T23:32:20.224Z,8.27
2017-11-11T23:38:24.830Z,6.80
2017-11-11T23:44:28.402Z,6.10
2017-11-11T23:50:32.047Z,6.00
2017-11-11T23:56:35.611Z,5.03
